Time;durP1;ratioP1;P1;durP2;ratioP2;P2;SDS_P1;SDS_P2;PMS_P1;PMS_P2;Temp;Humidity;BMP_temperature;BMP_pressure;BME280_temperature;BME280_humidity;BME280_pressure;Samples;Min_cycle;Max_cycle;Signal;HPM_P1;HPM_P2
2023/10/18 00:01:22;;;;;;;6.60;4.50;;;4.70;99.90;;;;;;5081344;28;20522;-62
2023/10/18 00:03:47;;;;;;;9.25;4.53;;;4.80;99.90;;;;;;5084432;28;20032;-63
2023/10/18 00:06:15;;;;;;;7.80;3.90;;;4.70;99.90;;;;;;5078784;28;20537;-62
2023/10/18 00:08:45;;;;;;;8.35;4.30;;;4.60;99.90;;;;;;5084111;28;20048;-62
2023/10/18 00:11:16;;;;;;;11.73;5.65;;;4.70;99.90;;;;;;5076993;28;20119;-62
2023/10/18 00:13:44;;;;;;;11.38;5.10;;;4.70;99.90;;;;;;5083855;27;20040;-63
2023/10/18 00:16:09;;;;;;;8.43;4.18;;;4.70;99.90;;;;;;5076708;28;20044;-62
2023/10/18 00:18:35;;;;;;;8.10;4.15;;;4.80;99.90;;;;;;5069689;28;20047;-62
2023/10/18 00:21:07;;;;;;;10.00;4.70;;;4.80;99.90;;;;;;5068612;28;20070;-63
2023/10/18 00:23:33;;;;;;;7.07;4.00;;;4.80;99.90;;;;;;5070052;28;20048;-63
2023/10/18 00:26:08;;;;;;;8.27;5.45;;;4.70;99.90;;;;;;5063845;28;20033;-63
2023/10/18 00:28:38;;;;;;;7.60;5.13;;;4.70;99.90;;;;;;5065587;28;20041;-63
2023/10/18 00:31:17;;;;;;;9.30;4.68;;;4.80;99.90;;;;;;5062604;28;20452;-64
2023/10/18 00:33:44;;;;;;;7.43;4.57;;;4.80;99.90;;;;;;5070464;28;20460;-63
2023/10/18 00:36:11;;;;;;;9.27;5.55;;;4.80;99.90;;;;;;5065243;28;20047;-62
2023/10/18 00:38:40;;;;;;;10.25;5.78;;;4.90;99.90;;;;;;5075695;28;20032;-59
2023/10/18 00:41:10;;;;;;;8.70;5.05;;;4.90;99.90;;;;;;5064999;28;20036;-63
2023/10/18 00:43:36;;;;;;;7.32;5.40;;;5.00;99.90;;;;;;5069971;28;20047;-63
2023/10/18 00:46:03;;;;;;;10.80;5.70;;;5.00;99.90;;;;;;5062832;28;20053;-62
2023/10/18 00:48:31;;;;;;;16.40;6.82;;;5.00;99.90;;;;;;5073711;28;20048;-63
2023/10/18 00:50:58;;;;;;;11.52;5.60;;;5.00;99.90;;;;;;5068984;28;20029;-63
2023/10/18 00:53:25;;;;;;;8.85;5.05;;;5.10;99.90;;;;;;5069137;28;20043;-63
2023/10/18 00:55:57;;;;;;;8.55;4.78;;;5.10;99.90;;;;;;5063907;28;20056;-63
2023/10/18 00:58:34;;;;;;;6.18;4.65;;;5.10;99.90;;;;;;5070212;28;20132;-61
2023/10/18 01:01:09;;;;;;;8.48;4.70;;;5.20;99.90;;;;;;5064919;28;20043;-61
2023/10/18 01:03:45;;;;;;;9.82;4.93;;;5.10;99.90;;;;;;5072781;28;20119;-60
2023/10/18 01:06:17;;;;;;;6.50;4.72;;;5.20;99.90;;;;;;5064929;28;20495;-64
2023/10/18 01:08:46;;;;;;;9.07;4.57;;;5.10;99.90;;;;;;5069137;28;20123;-62
2023/10/18 01:11:12;;;;;;;7.82;4.07;;;5.20;99.90;;;;;;5063166;28;20041;-61
2023/10/18 01:13:41;;;;;;;8.95;4.88;;;5.20;99.90;;;;;;5069285;28;20036;-61
2023/10/18 01:18:54;;;;;;;9.77;4.43;;;5.10;99.90;;;;;;5069262;28;20165;-61
2023/10/18 01:21:21;;;;;;;6.70;4.50;;;5.10;99.90;;;;;;5067715;28;20159;-61
2023/10/18 01:23:56;;;;;;;10.13;4.82;;;5.10;99.90;;;;;;5071092;28;20044;-61
2023/10/18 01:26:24;;;;;;;6.32;4.25;;;5.10;99.90;;;;;;5067048;28;20105;-62
2023/10/18 01:28:54;;;;;;;7.80;4.03;;;5.10;99.90;;;;;;5068483;28;20040;-61
2023/10/18 01:31:21;;;;;;;8.30;4.63;;;5.00;99.90;;;;;;5066899;28;20048;-61
2023/10/18 01:33:47;;;;;;;5.40;3.83;;;4.90;99.90;;;;;;5069313;28;20028;-60
2023/10/18 01:36:18;;;;;;;8.80;4.30;;;4.90;99.90;;;;;;5067339;28;20119;-59
2023/10/18 01:38:49;;;;;;;10.40;4.80;;;4.80;99.90;;;;;;5069189;28;20078;-60
2023/10/18 01:41:34;;;;;;;9.95;4.90;;;4.70;99.90;;;;;;5067429;28;20494;-61
2023/10/18 01:44:07;;;;;;;8.60;4.78;;;4.70;99.90;;;;;;5074710;28;20843;-60
2023/10/18 01:46:49;;;;;;;9.50;5.40;;;4.80;99.90;;;;;;5069612;28;20076;-61
2023/10/18 01:49:19;;;;;;;12.27;5.15;;;4.80;99.90;;;;;;5069412;28;20051;-61
2023/10/18 01:51:47;;;;;;;9.55;4.75;;;4.90;99.90;;;;;;5072464;28;20036;-60
2023/10/18 01:54:13;;;;;;;11.77;5.20;;;4.90;99.90;;;;;;5074903;28;20464;-60
2023/10/18 01:56:41;;;;;;;6.75;4.65;;;4.90;99.90;;;;;;5076789;28;20040;-61
2023/10/18 01:59:08;;;;;;;8.45;4.57;;;5.00;99.90;;;;;;5074958;28;20044;-59
2023/10/18 02:01:34;;;;;;;6.18;4.05;;;5.00;99.90;;;;;;5069057;28;20135;-61
2023/10/18 02:04:00;;;;;;;9.52;4.63;;;5.00;99.90;;;;;;5082247;28;20048;-61
2023/10/18 02:06:27;;;;;;;9.70;4.65;;;5.00;99.90;;;;;;5073517;28;20040;-61
2023/10/18 02:08:52;;;;;;;6.85;4.57;;;5.00;99.90;;;;;;5078520;28;20040;-59
2023/10/18 02:11:19;;;;;;;7.43;4.65;;;5.00;99.90;;;;;;5067935;28;20097;-61
2023/10/18 02:13:44;;;;;;;8.15;4.50;;;5.00;99.90;;;;;;5068788;28;20037;-61
2023/10/18 02:16:15;;;;;;;6.25;4.00;;;5.00;99.90;;;;;;5066852;28;20043;-61
2023/10/18 02:18:40;;;;;;;8.80;4.22;;;4.80;99.90;;;;;;5070051;28;20052;-61
2023/10/18 02:21:06;;;;;;;7.78;4.43;;;4.80;99.90;;;;;;5072042;28;20036;-61
2023/10/18 02:23:35;;;;;;;8.32;4.30;;;4.80;99.90;;;;;;5067280;28;20060;-62
2023/10/18 02:26:27;;;;;;;7.38;4.43;;;4.80;99.90;;;;;;5066201;28;20077;-61
2023/10/18 02:28:52;;;;;;;8.27;4.60;;;4.70;99.90;;;;;;5064653;28;20047;-62
2023/10/18 02:31:21;;;;;;;6.75;4.10;;;4.60;99.90;;;;;;5065047;28;20036;-61
2023/10/18 02:33:53;;;;;;;8.02;4.07;;;4.50;99.90;;;;;;5068366;28;20051;-60
2023/10/18 02:36:32;;;;;;;8.52;4.85;;;4.50;99.90;;;;;;5066125;28;20044;-61
2023/10/18 02:38:57;;;;;;;6.68;4.30;;;4.50;99.90;;;;;;5068576;28;20048;-61
2023/10/18 02:41:29;;;;;;;10.18;4.40;;;4.50;99.90;;;;;;5066464;28;20490;-61
2023/10/18 02:43:57;;;;;;;8.30;4.55;;;4.40;99.90;;;;;;5071794;28;20519;-62
2023/10/18 02:46:24;;;;;;;10.45;5.30;;;4.50;99.90;;;;;;5066062;28;20041;-62
2023/10/18 02:48:54;;;;;;;9.60;4.78;;;4.60;99.90;;;;;;5066651;28;20046;-62
2023/10/18 02:51:28;;;;;;;13.00;4.90;;;4.60;99.90;;;;;;5066468;28;20111;-62
2023/10/18 02:54:07;;;;;;;11.63;4.88;;;4.70;99.90;;;;;;5072859;28;20071;-61
2023/10/18 02:56:37;;;;;;;8.30;4.82;;;4.70;99.90;;;;;;5065640;28;20579;-61
2023/10/18 02:59:08;;;;;;;10.77;5.07;;;4.70;99.90;;;;;;5067744;28;20048;-61
2023/10/18 03:01:38;;;;;;;9.45;4.90;;;4.80;99.90;;;;;;5065027;28;20103;-61
2023/10/18 03:04:07;;;;;;;8.40;4.43;;;4.80;99.90;;;;;;5067370;28;20044;-61
2023/10/18 03:06:34;;;;;;;9.57;5.03;;;4.80;99.90;;;;;;5064921;28;20048;-61
2023/10/18 03:09:00;;;;;;;9.40;4.75;;;4.80;99.90;;;;;;5071753;28;20067;-61
2023/10/18 03:11:27;;;;;;;10.65;5.35;;;4.90;99.90;;;;;;5066177;28;20050;-61
2023/10/18 03:13:57;;;;;;;10.68;5.15;;;4.90;99.90;;;;;;5068023;28;20035;-61
2023/10/18 03:19:11;;;;;;;7.57;5.15;;;4.80;99.90;;;;;;5063260;28;20059;-62
2023/10/18 03:21:37;;;;;;;10.57;5.20;;;4.80;99.90;;;;;;5065651;28;20050;-60
2023/10/18 03:24:04;;;;;;;10.00;4.90;;;4.80;99.90;;;;;;5066487;28;20512;-61
2023/10/18 03:26:36;;;;;;;9.07;5.43;;;4.90;99.90;;;;;;5064894;28;20044;-63
2023/10/18 03:29:05;;;;;;;12.50;4.97;;;4.90;99.90;;;;;;5072247;28;20048;-63
2023/10/18 03:31:35;;;;;;;7.22;4.38;;;4.90;99.90;;;;;;5062214;28;20442;-61
2023/10/18 03:34:02;;;;;;;8.95;4.10;;;4.90;99.90;;;;;;5064540;28;20040;-62
2023/10/18 03:36:32;;;;;;;5.53;3.70;;;5.00;99.90;;;;;;5068158;28;20036;-62
2023/10/18 03:39:15;;;;;;;8.05;3.97;;;5.00;99.90;;;;;;5064894;28;20551;-61
2023/10/18 03:41:41;;;;;;;6.60;3.67;;;5.00;99.90;;;;;;5066945;28;20477;-61
2023/10/18 03:44:08;;;;;;;7.85;4.03;;;5.00;99.90;;;;;;5067751;28;20049;-61
2023/10/18 03:46:47;;;;;;;7.00;4.00;;;4.90;99.90;;;;;;5066315;28;20037;-61
2023/10/18 03:49:31;;;;;;;5.63;3.58;;;4.90;99.90;;;;;;5071798;28;20132;-61
2023/10/18 03:52:01;;;;;;;9.50;4.20;;;4.80;99.90;;;;;;5062226;28;20446;-61
2023/10/18 03:54:28;;;;;;;7.95;3.72;;;4.80;99.90;;;;;;5079182;28;20087;-61
2023/10/18 03:56:54;;;;;;;6.15;3.95;;;4.80;99.90;;;;;;5072550;28;20499;-61
2023/10/18 03:59:24;;;;;;;12.05;5.25;;;4.80;99.90;;;;;;5073539;28;20036;-61
2023/10/18 04:02:15;;;;;;;7.47;4.20;;;4.80;99.90;;;;;;5065075;28;20814;-61
2023/10/18 04:04:44;;;;;;;12.25;4.78;;;4.80;99.90;;;;;;5077447;28;20519;-61
2023/10/18 04:07:16;;;;;;;9.63;4.07;;;4.80;99.90;;;;;;5070306;28;20036;-62
2023/10/18 04:10:12;;;;;;;9.70;4.65;;;4.80;99.90;;;;;;5072071;28;20044;-62
2023/10/18 04:12:32;;;;;;;6.53;3.75;;;4.70;99.90;;;;;;5072904;28;20055;-63
2023/10/18 04:14:58;;;;;;;7.68;4.18;;;4.80;99.90;;;;;;5074453;28;20036;-61
2023/10/18 04:17:32;;;;;;;7.45;4.20;;;4.70;99.90;;;;;;5072098;28;20044;-61
2023/10/18 04:20:00;;;;;;;7.20;4.38;;;4.80;99.90;;;;;;5071125;28;20434;-61
2023/10/18 04:22:27;;;;;;;11.95;4.80;;;4.80;99.90;;;;;;5072146;28;20049;-61
2023/10/18 04:24:54;;;;;;;8.07;4.75;;;4.80;99.90;;;;;;5065292;28;20040;-61
2023/10/18 04:27:21;;;;;;;8.98;4.30;;;4.80;99.90;;;;;;5071336;28;20040;-61
2023/10/18 04:29:48;;;;;;;6.05;3.92;;;4.80;99.90;;;;;;5069311;28;20511;-59
2023/10/18 04:32:20;;;;;;;9.70;4.75;;;4.70;99.90;;;;;;5070569;28;20173;-61
2023/10/18 04:34:46;;;;;;;10.15;4.18;;;4.70;99.90;;;;;;5076065;28;20048;-61
2023/10/18 04:37:14;;;;;;;6.75;4.43;;;4.60;99.90;;;;;;5072293;28;20040;-61
2023/10/18 04:39:40;;;;;;;9.32;4.38;;;4.60;99.90;;;;;;5073397;28;20040;-61
2023/10/18 04:42:06;;;;;;;9.23;4.47;;;4.70;99.90;;;;;;5075081;28;20676;-61
2023/10/18 04:44:36;;;;;;;8.18;4.25;;;4.70;99.90;;;;;;5075772;28;20135;-61
2023/10/18 04:47:13;;;;;;;8.05;4.43;;;4.70;99.90;;;;;;5067560;28;20117;-61
2023/10/18 04:49:39;;;;;;;7.75;3.80;;;4.70;99.90;;;;;;5105746;27;20043;-61
2023/10/18 04:52:20;;;;;;;8.18;4.57;;;4.70;99.90;;;;;;5068960;28;20404;-61
2023/10/18 04:54:59;;;;;;;8.25;4.60;;;4.60;99.90;;;;;;5069207;28;20041;-61
2023/10/18 04:57:25;;;;;;;8.27;3.83;;;4.60;99.90;;;;;;5071094;28;20431;-59
2023/10/18 04:59:59;;;;;;;7.35;4.05;;;4.60;99.90;;;;;;5067900;28;20040;-62
2023/10/18 05:02:29;;;;;;;5.32;3.83;;;4.60;99.90;;;;;;5064418;28;20064;-62
2023/10/18 05:04:57;;;;;;;7.38;4.10;;;4.60;99.90;;;;;;5067992;28;20077;-62
2023/10/18 05:07:40;;;;;;;8.20;4.63;;;4.60;99.90;;;;;;5065869;28;20040;-62
2023/10/18 05:10:14;;;;;;;9.50;4.07;;;4.60;99.90;;;;;;5066134;28;20052;-62
2023/10/18 05:13:32;;;;;;;6.43;4.00;;;4.60;99.90;;;;;;5067768;28;20698;-61
2023/10/18 05:15:29;;;;;;;6.70;4.28;;;4.60;99.90;;;;;;5059537;28;20052;-62
2023/10/18 05:18:04;;;;;;;7.70;3.97;;;4.50;99.90;;;;;;5068743;28;20047;-59
2023/10/18 05:20:47;;;;;;;6.18;4.20;;;4.60;99.90;;;;;;5067639;28;20583;-61
2023/10/18 05:23:22;;;;;;;7.55;4.40;;;4.60;99.90;;;;;;5067947;28;20040;-62
2023/10/18 05:41:59;;;;;;;7.75;4.80;;;4.20;99.90;;;;;;5065134;28;20044;-63
2023/10/18 05:44:27;;;;;;;9.93;5.13;;;4.20;99.90;;;;;;5065090;28;20044;-62
2023/10/18 05:46:54;;;;;;;6.95;4.40;;;4.20;99.90;;;;;;5064141;28;20033;-64
2023/10/18 05:49:27;;;;;;;7.97;4.18;;;4.20;99.90;;;;;;5068875;28;20177;-64
2023/10/18 05:51:58;;;;;;;7.75;4.30;;;4.20;99.90;;;;;;5065652;28;20044;-64
2023/10/18 05:54:31;;;;;;;7.30;4.90;;;4.20;99.90;;;;;;5070600;28;20058;-64
2023/10/18 05:56:57;;;;;;;7.18;4.15;;;4.20;99.90;;;;;;5066746;28;20114;-62
2023/10/18 05:59:32;;;;;;;10.75;4.47;;;4.20;99.90;;;;;;5068629;28;20210;-62
2023/10/18 06:01:58;;;;;;;8.77;4.35;;;4.20;99.90;;;;;;5062601;28;20040;-63
2023/10/18 06:04:24;;;;;;;8.68;4.60;;;4.20;99.90;;;;;;5069773;28;20056;-62
2023/10/18 06:06:51;;;;;;;7.82;4.50;;;4.10;99.90;;;;;;5062975;28;20037;-63
2023/10/18 06:09:26;;;;;;;9.80;4.60;;;4.10;99.90;;;;;;5069647;28;20135;-63
2023/10/18 06:11:55;;;;;;;10.30;4.80;;;4.20;99.90;;;;;;5065518;28;20078;-62
2023/10/18 06:14:39;;;;;;;9.75;4.47;;;4.10;99.90;;;;;;5069188;28;20137;-62
2023/10/18 06:17:19;;;;;;;7.60;4.30;;;4.00;99.90;;;;;;5067312;28;20466;-64
2023/10/18 06:19:47;;;;;;;9.60;4.82;;;4.10;99.90;;;;;;5066461;28;20458;-62
2023/10/18 06:22:28;;;;;;;9.38;4.47;;;4.10;99.90;;;;;;5061466;28;20486;-62
2023/10/18 06:24:57;;;;;;;12.98;4.40;;;4.10;99.90;;;;;;5067531;28;20040;-61
2023/10/18 06:27:23;;;;;;;13.35;4.20;;;4.20;99.90;;;;;;5064010;28;20040;-60
2023/10/18 06:29:53;;;;;;;7.78;5.05;;;4.20;99.90;;;;;;5067940;28;20048;-61
2023/10/18 06:32:22;;;;;;;11.65;5.13;;;4.30;99.90;;;;;;5063166;28;20145;-62
2023/10/18 06:34:55;;;;;;;9.05;5.68;;;4.20;99.90;;;;;;5067043;28;20123;-61
2023/10/18 06:37:41;;;;;;;8.63;5.90;;;4.30;99.90;;;;;;5063187;28;20137;-61
2023/10/18 06:40:32;;;;;;;11.57;6.50;;;4.40;99.90;;;;;;5066975;28;20119;-60
2023/10/18 06:43:00;;;;;;;11.57;6.75;;;4.40;99.90;;;;;;5067683;28;20127;-61
2023/10/18 06:45:26;;;;;;;8.82;6.22;;;4.40;99.90;;;;;;5066114;28;20047;-59
2023/10/18 06:47:55;;;;;;;7.82;5.47;;;4.40;99.90;;;;;;5064883;28;20041;-62
2023/10/18 06:50:26;;;;;;;13.73;7.00;;;4.50;99.90;;;;;;5065827;28;20032;-62
2023/10/18 06:52:53;;;;;;;14.13;6.93;;;4.50;99.90;;;;;;5066836;28;20120;-60
2023/10/18 07:01:03;;;;;;;9.60;6.18;;;4.60;99.90;;;;;;5061145;28;20056;-60
2023/10/18 07:03:29;;;;;;;16.92;7.55;;;4.70;99.90;;;;;;5069842;28;20037;-61
2023/10/18 07:05:56;;;;;;;12.43;6.88;;;4.60;99.90;;;;;;5061494;28;20044;-61
2023/10/18 07:08:29;;;;;;;12.05;6.28;;;4.70;99.90;;;;;;5064928;28;20373;-63
2023/10/18 07:10:56;;;;;;;8.32;5.90;;;4.80;99.90;;;;;;5063279;28;20132;-63
2023/10/18 07:13:34;;;;;;;12.43;6.10;;;4.90;99.90;;;;;;5065750;28;20706;-64
2023/10/18 07:16:13;;;;;;;9.20;5.45;;;5.00;99.90;;;;;;5063422;28;20121;-58
2023/10/18 07:18:44;;;;;;;14.55;6.78;;;5.10;99.90;;;;;;5066894;28;20073;-61
2023/10/18 07:21:11;;;;;;;11.50;6.20;;;5.10;99.90;;;;;;5064920;28;20056;-56
2023/10/18 07:23:37;;;;;;;12.38;6.00;;;5.10;99.90;;;;;;5067758;28;20048;-61
2023/10/18 07:26:13;;;;;;;10.88;5.90;;;5.20;99.90;;;;;;5065480;28;20124;-58
2023/10/18 07:28:40;;;;;;;9.77;6.10;;;5.20;99.90;;;;;;5071451;28;20129;-61
2023/10/18 07:31:10;;;;;;;7.18;5.00;;;5.30;99.90;;;;;;5066329;28;20048;-61
2023/10/18 07:33:40;;;;;;;9.82;5.20;;;5.40;99.90;;;;;;5071056;28;20041;-58
2023/10/18 07:36:11;;;;;;;7.38;4.72;;;5.60;99.90;;;;;;5066044;28;20051;-61
2023/10/18 07:38:39;;;;;;;11.75;5.95;;;5.70;99.90;;;;;;5068561;28;20090;-61
2023/10/18 07:41:07;;;;;;;7.47;5.30;;;5.90;99.90;;;;;;5067398;28;20036;-61
2023/10/18 07:43:35;;;;;;;10.60;5.75;;;6.10;99.90;;;;;;5071125;28;20048;-59
2023/10/18 07:46:06;;;;;;;10.48;6.05;;;6.20;99.90;;;;;;5066024;28;20527;-62
2023/10/18 07:48:38;;;;;;;12.27;5.63;;;6.20;99.90;;;;;;5071643;28;20048;-59
2023/10/18 07:51:23;;;;;;;8.00;5.57;;;6.30;99.90;;;;;;5065026;28;20049;-61
2023/10/18 07:53:50;;;;;;;8.82;5.60;;;6.30;99.90;;;;;;5072144;28;20142;-59
2023/10/18 07:56:16;;;;;;;9.32;6.03;;;6.40;99.90;;;;;;5064947;28;20097;-61
2023/10/18 07:58:49;;;;;;;12.02;6.20;;;6.50;99.90;;;;;;5071180;28;20048;-61
2023/10/18 08:01:32;;;;;;;10.82;6.43;;;6.60;99.90;;;;;;5063867;28;20044;-61
2023/10/18 08:04:01;;;;;;;9.63;6.13;;;6.60;99.90;;;;;;5071087;28;20044;-61
2023/10/18 08:06:27;;;;;;;10.10;5.85;;;6.80;99.90;;;;;;5068436;28;20097;-60
2023/10/18 08:08:53;;;;;;;11.60;5.88;;;6.80;99.90;;;;;;5069503;28;20385;-59
2023/10/18 08:11:23;;;;;;;13.35;6.10;;;6.80;99.90;;;;;;5069638;28;20044;-62
2023/10/18 08:13:49;;;;;;;9.20;5.18;;;6.90;99.90;;;;;;5068598;28;20044;-60
2023/10/18 08:16:26;;;;;;;10.43;6.07;;;7.00;99.90;;;;;;5064799;28;20156;-61
2023/10/18 08:18:59;;;;;;;9.27;5.10;;;7.00;99.90;;;;;;5069750;28;20789;-61
2023/10/18 08:21:37;;;;;;;10.32;5.75;;;7.00;99.90;;;;;;5064681;28;20415;-61
2023/10/18 08:24:19;;;;;;;8.88;4.55;;;7.10;99.90;;;;;;5070527;28;20055;-61
2023/10/18 08:26:48;;;;;;;9.95;5.18;;;7.20;99.90;;;;;;5063939;28;20044;-60
2023/10/18 08:29:15;;;;;;;10.57;4.75;;;7.20;99.90;;;;;;5069590;28;20041;-60
2023/10/18 08:31:44;;;;;;;13.85;5.93;;;7.30;99.90;;;;;;5095373;28;20127;-60
2023/10/18 08:34:15;;;;;;;10.98;5.25;;;7.30;99.90;;;;;;5069976;28;20492;-61
2023/10/18 08:36:43;;;;;;;9.90;4.70;;;7.30;99.90;;;;;;5066830;28;20133;-61
2023/10/18 08:39:10;;;;;;;7.20;4.25;;;7.40;99.90;;;;;;5071048;28;20084;-62
2023/10/18 08:41:54;;;;;;;10.25;4.78;;;7.50;99.90;;;;;;5065553;28;20048;-62
2023/10/18 08:44:24;;;;;;;9.70;5.55;;;7.60;99.90;;;;;;5071501;28;20407;-61
2023/10/18 08:47:03;;;;;;;8.00;4.68;;;7.70;99.90;;;;;;5065002;28;20048;-61
2023/10/18 08:49:32;;;;;;;8.27;4.60;;;7.80;99.90;;;;;;5068657;28;20044;-62
2023/10/18 08:52:09;;;;;;;10.40;5.10;;;7.90;99.90;;;;;;5063284;28;20399;-61
2023/10/18 08:54:39;;;;;;;;;;;8.00;99.90;;;;;;5072484;28;20041;-62
2023/10/18 08:57:11;;;;;;;7.97;4.38;;;8.00;99.90;;;;;;5067294;28;19920;-61
2023/10/18 08:59:47;;;;;;;7.15;4.75;;;8.20;99.90;;;;;;5069985;28;20141;-62
2023/10/18 09:02:23;;;;;;;8.40;5.07;;;8.30;99.90;;;;;;5061430;28;20511;-62
2023/10/18 09:04:53;;;;;;;7.95;4.57;;;8.50;99.90;;;;;;5069459;28;20052;-62
2023/10/18 09:07:22;;;;;;;8.45;4.20;;;8.60;99.90;;;;;;5067295;28;20492;-61
2023/10/18 09:09:58;;;;;;;6.40;4.60;;;8.70;99.90;;;;;;5068729;28;20052;-61
2023/10/18 09:15:36;;;;;;;5.32;3.38;;;8.90;99.90;;;;;;5050829;28;20044;-62
2023/10/18 09:18:05;;;;;;;7.03;3.88;;;9.10;99.90;;;;;;5065836;28;20028;-62
2023/10/18 09:20:31;;;;;;;6.65;3.55;;;9.20;99.90;;;;;;5066367;28;20051;-62
2023/10/18 09:23:04;;;;;;;9.00;3.58;;;9.20;99.90;;;;;;5066923;28;20036;-62
2023/10/18 09:25:49;;;;;;;7.28;3.97;;;9.30;99.90;;;;;;5058817;28;20053;-61
2023/10/18 09:28:32;;;;;;;6.85;3.53;;;9.40;99.90;;;;;;5066949;28;20083;-61
2023/10/18 09:31:09;;;;;;;6.70;3.85;;;9.40;99.90;;;;;;5062813;28;20118;-62
2023/10/18 09:33:36;;;;;;;6.03;3.95;;;9.50;99.90;;;;;;5070165;28;20048;-62
2023/10/18 09:36:02;;;;;;;5.55;3.33;;;9.50;99.90;;;;;;5063755;28;20055;-62
2023/10/18 09:38:41;;;;;;;5.13;3.45;;;9.60;99.90;;;;;;5068571;28;20107;-62
2023/10/18 09:41:07;;;;;;;6.90;3.97;;;9.60;99.90;;;;;;5063918;28;20041;-62
2023/10/18 09:43:36;;;;;;;;;;;9.60;99.90;;;;;;5070318;28;20117;-61
2023/10/18 09:46:03;;;;;;;6.35;3.83;;;9.60;99.90;;;;;;5062876;28;20015;-63
2023/10/18 09:48:37;;;;;;;6.05;4.05;;;9.50;99.90;;;;;;5069264;28;20049;-61
2023/10/18 09:51:24;;;;;;;7.25;4.20;;;9.50;99.90;;;;;;5061858;28;20472;-62
2023/10/18 09:53:52;;;;;;;9.07;3.65;;;9.50;99.90;;;;;;5068687;28;20063;-61
2023/10/18 09:56:19;;;;;;;9.02;3.72;;;9.60;99.90;;;;;;5068017;28;20454;-61
2023/10/18 09:58:51;;;;;;;4.57;3.55;;;9.60;99.90;;;;;;5069239;28;20052;-62
2023/10/18 10:02:00;;;;;;;6.32;3.88;;;9.60;99.90;;;;;;5061159;28;20041;-62
2023/10/18 10:04:14;;;;;;;7.10;4.65;;;9.80;99.90;;;;;;5064403;28;20056;-61
2023/10/18 10:06:46;;;;;;;7.03;4.20;;;9.90;99.90;;;;;;5063913;28;20127;-61
2023/10/18 10:09:16;;;;;;;8.35;4.13;;;10.00;99.90;;;;;;5067742;28;20124;-61
2023/10/18 10:11:45;;;;;;;5.75;3.80;;;10.20;99.90;;;;;;5062520;28;20139;-61
2023/10/18 10:14:15;;;;;;;7.13;4.30;;;10.50;99.90;;;;;;5066534;28;20044;-60
2023/10/18 10:16:52;;;;;;;6.93;3.75;;;10.60;99.90;;;;;;5060315;28;20163;-59
2023/10/18 10:19:22;;;;;;;7.70;4.30;;;10.70;99.90;;;;;;5067515;28;20283;-60
2023/10/18 10:21:48;;;;;;;7.32;3.80;;;10.90;99.90;;;;;;5061830;28;20090;-62
2023/10/18 10:25:00;;;;;;;;;;;11.00;99.90;;;;;;5067860;28;20037;-60
2023/10/18 10:32:58;;;;;;;8.68;4.03;;;10.90;99.10;;;;;;5063112;28;20044;-61
2023/10/18 10:35:24;;;;;;;5.72;3.60;;;10.60;99.90;;;;;;5065296;28;20209;-57
2023/10/18 10:38:14;;;;;;;6.40;3.80;;;10.40;99.90;;;;;;5080705;28;20051;-62
2023/10/18 10:40:43;;;;;;;9.13;4.57;;;10.30;99.90;;;;;;5063712;28;20086;-60
2023/10/18 10:43:10;;;;;;;8.18;3.70;;;10.30;99.50;;;;;;5067168;28;20040;-62
2023/10/18 10:45:43;;;;;;;7.65;3.90;;;10.50;99.90;;;;;;5067973;28;20032;-61
2023/10/18 10:48:18;;;;;;;5.95;3.90;;;10.60;99.90;;;;;;5064711;28;20048;-60
2023/10/18 10:50:50;;;;;;;6.43;3.80;;;10.80;99.90;;;;;;5058489;28;20045;-62
2023/10/18 10:53:35;;;;;;;6.03;3.15;;;10.90;99.90;;;;;;5066261;28;20446;-62
2023/10/18 10:56:29;;;;;;;5.30;3.42;;;10.90;98.30;;;;;;5061315;28;20447;-62
2023/10/18 10:59:43;;;;;;;7.13;2.92;;;11.00;98.30;;;;;;5067509;28;20044;-61
2023/10/18 11:01:44;;;;;;;8.07;3.47;;;11.00;96.60;;;;;;5053728;28;20048;-60
2023/10/18 11:04:15;;;;;;;;;;;11.00;97.60;;;;;;5067429;28;20047;-61
2023/10/18 11:06:43;;;;;;;7.03;3.17;;;11.00;96.10;;;;;;5056826;28;19942;-61
2023/10/18 11:09:15;;;;;;;13.43;4.45;;;11.10;97.00;;;;;;5072823;28;20043;-62
2023/10/18 11:11:45;;;;;;;6.95;3.35;;;11.10;97.40;;;;;;5055788;28;20432;-61
2023/10/18 11:14:18;;;;;;;8.07;3.13;;;11.10;97.20;;;;;;5073212;28;20044;-60
2023/10/18 11:16:46;;;;;;;4.30;2.50;;;11.20;96.30;;;;;;5055258;28;20415;-62
2023/10/18 11:19:15;;;;;;;5.65;2.55;;;11.10;97.20;;;;;;5073211;28;20036;-61
2023/10/18 11:21:42;;;;;;;8.88;3.10;;;11.00;97.30;;;;;;5066398;28;20040;-61
2023/10/18 11:24:11;;;;;;;5.07;2.67;;;10.90;97.00;;;;;;5066870;28;20045;-61
2023/10/18 11:26:42;;;;;;;3.58;2.63;;;10.90;98.00;;;;;;5069202;28;20491;-61
2023/10/18 11:29:08;;;;;;;4.68;2.60;;;11.10;98.10;;;;;;5074821;28;20048;-62
2023/10/18 11:31:37;;;;;;;;;;;11.00;97.50;;;;;;5061970;28;20044;-61
2023/10/18 11:34:07;;;;;;;4.90;3.05;;;11.00;97.10;;;;;;5073247;28;19916;-61
2023/10/18 11:36:34;;;;;;;3.63;2.42;;;11.00;96.80;;;;;;5071032;28;20527;-61
2023/10/18 11:39:18;;;;;;;3.47;2.30;;;11.00;97.00;;;;;;5076065;28;20741;-61
2023/10/18 11:41:56;;;;;;;11.57;3.60;;;11.00;96.00;;;;;;5063433;28;20055;-60
2023/10/18 11:44:28;;;;;;;7.70;2.90;;;10.90;96.90;;;;;;5066653;28;20052;-61
2023/10/18 11:47:12;;;;;;;6.20;2.80;;;10.80;98.00;;;;;;5071598;28;20124;-61
2023/10/18 11:49:42;;;;;;;4.55;2.70;;;10.70;96.60;;;;;;5075312;28;20067;-61
2023/10/18 11:52:22;;;;;;;5.82;3.10;;;10.70;97.40;;;;;;5072256;28;20432;-61
2023/10/18 11:54:52;;;;;;;7.05;3.53;;;10.60;97.80;;;;;;5077366;28;20043;-59
2023/10/18 11:57:35;;;;;;;4.57;2.50;;;10.70;97.40;;;;;;5071469;28;20048;-61
2023/10/18 12:02:45;;;;;;;3.95;2.75;;;10.80;98.40;;;;;;5061373;28;20154;-60
2023/10/18 12:05:14;;;;;;;;;;;10.70;97.30;;;;;;5077247;28;20646;-61
2023/10/18 12:07:44;;;;;;;4.65;2.65;;;10.70;97.40;;;;;;5075095;28;19923;-61
2023/10/18 12:10:17;;;;;;;5.20;2.92;;;10.80;97.80;;;;;;5076452;28;20036;-59
2023/10/18 12:12:43;;;;;;;4.95;3.17;;;10.70;96.70;;;;;;5075269;28;20065;-61
2023/10/18 12:15:09;;;;;;;3.97;3.00;;;10.70;97.60;;;;;;5081302;28;20056;-61
2023/10/18 12:17:34;;;;;;;;;;;10.70;97.50;;;;;;5082157;28;20114;-60
2023/10/18 12:20:00;;;;;;;6.18;2.80;;;10.70;97.60;;;;;;5083509;28;20378;-60
2023/10/18 12:22:26;;;;;;;;;;;10.80;98.10;;;;;;5071087;28;20041;-61
2023/10/18 12:24:52;;;;;;;6.78;2.72;;;10.80;97.00;;;;;;5072542;28;19939;-62
2023/10/18 12:27:36;;;;;;;4.35;2.30;;;10.80;97.50;;;;;;5068112;28;20035;-62
2023/10/18 12:33:05;;;;;;;6.18;3.45;;;11.00;97.20;;;;;;5053317;28;20041;-61
2023/10/18 12:35:32;;;;;;;3.85;2.85;;;11.10;98.30;;;;;;5066472;28;20040;-60
2023/10/18 12:37:57;;;;;;;5.90;3.50;;;11.20;97.70;;;;;;5068518;28;20143;-63
2023/10/18 12:40:31;;;;;;;;;;;11.20;96.80;;;;;;5068203;28;20135;-63
2023/10/18 12:43:00;;;;;;;5.60;2.80;;;11.20;97.20;;;;;;5074570;28;20002;-62
2023/10/18 12:45:26;;;;;;;4.22;2.45;;;11.20;97.50;;;;;;5066802;28;20048;-62
2023/10/18 12:47:52;;;;;;;7.70;3.17;;;11.30;97.60;;;;;;5069640;28;20492;-62
2023/10/18 12:50:19;;;;;;;3.25;2.47;;;11.50;97.00;;;;;;5067616;28;20040;-63
2023/10/18 12:52:46;;;;;;;6.82;3.15;;;11.60;96.40;;;;;;5068465;28;20040;-62
2023/10/18 12:57:57;;;;;;;7.72;2.35;;;11.70;96.80;;;;;;5066626;28;20055;-62
2023/10/18 13:00:25;;;;;;;;;;;11.80;96.10;;;;;;5067143;28;20056;-61
2023/10/18 13:05:20;;;;;;;5.28;2.75;;;11.90;95.80;;;;;;5067416;28;20094;-61
2023/10/18 13:07:46;;;;;;;;;;;11.90;95.80;;;;;;5068860;28;20060;-61
2023/10/18 13:10:13;;;;;;;3.65;2.33;;;12.00;96.00;;;;;;5067993;28;19940;-62
2023/10/18 13:12:54;;;;;;;4.30;2.58;;;12.00;94.70;;;;;;5068653;28;20072;-62
2023/10/18 13:15:23;;;;;;;5.20;3.00;;;12.10;94.60;;;;;;5067163;28;20036;-62
2023/10/18 13:17:51;;;;;;;3.75;2.42;;;12.10;95.10;;;;;;5067272;28;20047;-62
2023/10/18 13:20:24;;;;;;;5.65;3.00;;;12.10;95.40;;;;;;5067797;28;20079;-62
2023/10/18 13:22:55;;;;;;;4.38;2.83;;;12.00;95.30;;;;;;5069092;28;20071;-62
2023/10/18 13:25:37;;;;;;;6.60;2.97;;;11.90;95.90;;;;;;5071483;28;20052;-62
2023/10/18 13:28:06;;;;;;;5.95;3.58;;;11.90;96.30;;;;;;5065474;28;20111;-63
2023/10/18 13:30:32;;;;;;;9.90;4.20;;;11.80;95.90;;;;;;5065171;28;20097;-61
2023/10/18 13:33:01;;;;;;;7.13;2.72;;;11.80;96.30;;;;;;5069377;28;20127;-62
2023/10/18 13:35:31;;;;;;;4.38;2.53;;;11.80;97.00;;;;;;5065688;28;20131;-62
2023/10/18 13:37:57;;;;;;;4.07;2.85;;;11.70;96.80;;;;;;5069082;28;20123;-61
2023/10/18 13:40:23;;;;;;;10.45;3.25;;;11.60;96.20;;;;;;5070432;28;20071;-62
2023/10/18 13:42:50;;;;;;;4.82;2.92;;;11.50;96.20;;;;;;5075279;28;20036;-62
2023/10/18 13:45:16;;;;;;;4.55;3.53;;;11.40;97.20;;;;;;5070945;28;20109;-62
2023/10/18 13:47:42;;;;;;;;;;;11.30;97.20;;;;;;5069613;28;20048;-62
2023/10/18 13:50:11;;;;;;;6.82;3.85;;;11.20;98.30;;;;;;5072437;28;19931;-62
2023/10/18 13:52:41;;;;;;;9.30;3.90;;;11.10;98.10;;;;;;5070061;28;20079;-63
2023/10/18 13:55:08;;;;;;;11.45;3.13;;;11.10;99.20;;;;;;5077832;28;20046;-62
2023/10/18 13:57:35;;;;;;;10.50;4.35;;;11.10;99.90;;;;;;5073788;28;20044;-62
2023/10/18 14:00:06;;;;;;;6.97;3.80;;;11.10;99.90;;;;;;5078887;28;20046;-62
2023/10/18 14:02:36;;;;;;;8.95;4.25;;;11.10;99.90;;;;;;5068440;28;20044;-61